sensor_id;sensor_type;location;lat;lon;timestamp;P1;durP1;ratioP1;P2;durP2;ratioP2
515;SDS011;244;48.508;9.052;2024-02-14T00:01:24;1.23;;;1.13;;
515;SDS011;244;48.508;9.052;2024-02-14T00:03:51;5.77;;;2.77;;
515;SDS011;244;48.508;9.052;2024-02-14T00:06:18;2.17;;;2.00;;
515;SDS011;244;48.508;9.052;2024-02-14T00:08:44;2.80;;;1.73;;
515;SDS011;244;48.508;9.052;2024-02-14T00:11:11;1.57;;;1.47;;
515;SDS011;244;48.508;9.052;2024-02-14T00:13:39;1.67;;;1.57;;
515;SDS011;244;48.508;9.052;2024-02-14T00:16:07;2.47;;;1.80;;
515;SDS011;244;48.508;9.052;2024-02-14T00:18:34;5.13;;;3.50;;
515;SDS011;244;48.508;9.052;2024-02-14T00:21:01;1.90;;;1.80;;
515;SDS011;244;48.508;9.052;2024-02-14T00:23:28;1.50;;;1.40;;
515;SDS011;244;48.508;9.052;2024-02-14T00:25:55;2.27;;;2.07;;
515;SDS011;244;48.508;9.052;2024-02-14T00:28:22;3.37;;;1.23;;
515;SDS011;244;48.508;9.052;2024-02-14T00:30:51;1.63;;;1.53;;
515;SDS011;244;48.508;9.052;2024-02-14T00:33:20;0.97;;;0.87;;
515;SDS011;244;48.508;9.052;2024-02-14T00:35:47;1.70;;;1.70;;
515;SDS011;244;48.508;9.052;2024-02-14T00:38:14;1.63;;;1.53;;
515;SDS011;244;48.508;9.052;2024-02-14T00:40:41;1.50;;;1.40;;
515;SDS011;244;48.508;9.052;2024-02-14T00:43:07;1.17;;;1.00;;
515;SDS011;244;48.508;9.052;2024-02-14T00:45:35;2.40;;;1.80;;
515;SDS011;244;48.508;9.052;2024-02-14T00:48:03;1.53;;;1.47;;
515;SDS011;244;48.508;9.052;2024-02-14T00:50:31;1.10;;;1.00;;
515;SDS011;244;48.508;9.052;2024-02-14T00:52:58;1.13;;;1.03;;
515;SDS011;244;48.508;9.052;2024-02-14T00:55:25;0.90;;;0.83;;
515;SDS011;244;48.508;9.052;2024-02-14T00:57:52;0.90;;;0.80;;
515;SDS011;244;48.508;9.052;2024-02-14T01:00:19;1.33;;;1.23;;
515;SDS011;244;48.508;9.052;2024-02-14T01:02:46;2.20;;;0.93;;
515;SDS011;244;48.508;9.052;2024-02-14T01:05:13;1.03;;;0.63;;
515;SDS011;244;48.508;9.052;2024-02-14T01:07:41;1.93;;;1.83;;
515;SDS011;244;48.508;9.052;2024-02-14T01:10:08;2.53;;;2.33;;
515;SDS011;244;48.508;9.052;2024-02-14T01:12:35;1.53;;;1.30;;
515;SDS011;244;48.508;9.052;2024-02-14T01:15:02;1.80;;;1.63;;
515;SDS011;244;48.508;9.052;2024-02-14T01:17:30;1.83;;;1.70;;
515;SDS011;244;48.508;9.052;2024-02-14T01:19:57;4.30;;;3.40;;
515;SDS011;244;48.508;9.052;2024-02-14T01:22:24;1.67;;;1.57;;
515;SDS011;244;48.508;9.052;2024-02-14T01:24:53;4.53;;;1.80;;
515;SDS011;244;48.508;9.052;2024-02-14T01:27:20;1.73;;;1.43;;
515;SDS011;244;48.508;9.052;2024-02-14T01:29:47;1.77;;;1.60;;
515;SDS011;244;48.508;9.052;2024-02-14T01:32:14;3.07;;;2.43;;
515;SDS011;244;48.508;9.052;2024-02-14T01:34:42;1.20;;;1.10;;
515;SDS011;244;48.508;9.052;2024-02-14T01:37:09;1.30;;;1.20;;
515;SDS011;244;48.508;9.052;2024-02-14T01:39:36;1.50;;;1.47;;
515;SDS011;244;48.508;9.052;2024-02-14T01:42:04;1.13;;;1.03;;
515;SDS011;244;48.508;9.052;2024-02-14T01:44:32;1.63;;;1.53;;
515;SDS011;244;48.508;9.052;2024-02-14T01:46:59;3.90;;;3.00;;
515;SDS011;244;48.508;9.052;2024-02-14T01:49:27;1.17;;;1.17;;
515;SDS011;244;48.508;9.052;2024-02-14T01:51:54;4.40;;;3.90;;
515;SDS011;244;48.508;9.052;2024-02-14T01:54:24;1.10;;;1.00;;
515;SDS011;244;48.508;9.052;2024-02-14T01:56:53;3.00;;;1.83;;
515;SDS011;244;48.508;9.052;2024-02-14T01:59:22;2.03;;;1.87;;
515;SDS011;244;48.508;9.052;2024-02-14T02:01:50;2.40;;;2.20;;
515;SDS011;244;48.508;9.052;2024-02-14T02:04:17;2.00;;;1.90;;
515;SDS011;244;48.508;9.052;2024-02-14T02:06:44;1.93;;;1.83;;
515;SDS011;244;48.508;9.052;2024-02-14T02:09:11;1.47;;;1.37;;
515;SDS011;244;48.508;9.052;2024-02-14T02:11:42;3.40;;;2.60;;
515;SDS011;244;48.508;9.052;2024-02-14T02:14:13;2.40;;;2.20;;
515;SDS011;244;48.508;9.052;2024-02-14T02:16:42;1.83;;;1.70;;
515;SDS011;244;48.508;9.052;2024-02-14T02:19:09;2.63;;;1.90;;
515;SDS011;244;48.508;9.052;2024-02-14T02:21:36;2.23;;;2.03;;
515;SDS011;244;48.508;9.052;2024-02-14T02:24:05;2.67;;;2.13;;
515;SDS011;244;48.508;9.052;2024-02-14T02:26:32;1.70;;;1.60;;
515;SDS011;244;48.508;9.052;2024-02-14T02:28:58;2.63;;;1.77;;
515;SDS011;244;48.508;9.052;2024-02-14T02:31:26;2.57;;;2.00;;
515;SDS011;244;48.508;9.052;2024-02-14T02:33:52;1.63;;;1.53;;
515;SDS011;244;48.508;9.052;2024-02-14T02:36:19;3.53;;;2.10;;
515;SDS011;244;48.508;9.052;2024-02-14T02:38:49;4.70;;;1.63;;
515;SDS011;244;48.508;9.052;2024-02-14T02:41:18;4.83;;;1.70;;
515;SDS011;244;48.508;9.052;2024-02-14T02:43:45;1.20;;;1.07;;
515;SDS011;244;48.508;9.052;2024-02-14T02:46:14;1.50;;;1.40;;
515;SDS011;244;48.508;9.052;2024-02-14T02:48:41;1.90;;;1.80;;
515;SDS011;244;48.508;9.052;2024-02-14T02:51:08;1.07;;;0.97;;
515;SDS011;244;48.508;9.052;2024-02-14T02:53:35;2.77;;;2.57;;
515;SDS011;244;48.508;9.052;2024-02-14T02:56:03;3.03;;;2.83;;
515;SDS011;244;48.508;9.052;2024-02-14T02:58:31;2.57;;;2.07;;
515;SDS011;244;48.508;9.052;2024-02-14T03:00:58;1.00;;;0.90;;
515;SDS011;244;48.508;9.052;2024-02-14T03:03:25;0.83;;;0.73;;
515;SDS011;244;48.508;9.052;2024-02-14T03:05:53;2.93;;;2.10;;
515;SDS011;244;48.508;9.052;2024-02-14T03:08:20;1.90;;;1.80;;
515;SDS011;244;48.508;9.052;2024-02-14T03:10:50;2.00;;;1.90;;
515;SDS011;244;48.508;9.052;2024-02-14T03:13:17;2.23;;;2.03;;
515;SDS011;244;48.508;9.052;2024-02-14T03:15:47;1.00;;;0.90;;
515;SDS011;244;48.508;9.052;2024-02-14T03:18:14;1.77;;;1.40;;
515;SDS011;244;48.508;9.052;2024-02-14T03:20:41;2.27;;;2.07;;
515;SDS011;244;48.508;9.052;2024-02-14T03:23:08;2.30;;;2.10;;
515;SDS011;244;48.508;9.052;2024-02-14T03:25:35;3.67;;;2.03;;
515;SDS011;244;48.508;9.052;2024-02-14T03:28:03;1.60;;;1.40;;
515;SDS011;244;48.508;9.052;2024-02-14T03:30:33;3.33;;;1.80;;
515;SDS011;244;48.508;9.052;2024-02-14T03:33:02;3.23;;;2.00;;
515;SDS011;244;48.508;9.052;2024-02-14T03:35:29;1.77;;;1.67;;
515;SDS011;244;48.508;9.052;2024-02-14T03:37:56;1.67;;;1.30;;
515;SDS011;244;48.508;9.052;2024-02-14T03:40:23;2.00;;;1.47;;
515;SDS011;244;48.508;9.052;2024-02-14T03:42:50;3.10;;;1.93;;
515;SDS011;244;48.508;9.052;2024-02-14T03:45:16;6.33;;;1.87;;
515;SDS011;244;48.508;9.052;2024-02-14T03:47:43;3.17;;;3.00;;
515;SDS011;244;48.508;9.052;2024-02-14T03:50:12;1.97;;;1.40;;
515;SDS011;244;48.508;9.052;2024-02-14T03:52:40;2.53;;;1.77;;
515;SDS011;244;48.508;9.052;2024-02-14T03:55:08;1.50;;;1.40;;
515;SDS011;244;48.508;9.052;2024-02-14T03:57:38;5.50;;;1.40;;
515;SDS011;244;48.508;9.052;2024-02-14T04:00:06;1.23;;;1.10;;
515;SDS011;244;48.508;9.052;2024-02-14T04:02:35;1.03;;;0.93;;
515;SDS011;244;48.508;9.052;2024-02-14T04:05:02;1.30;;;1.20;;
515;SDS011;244;48.508;9.052;2024-02-14T04:07:31;2.03;;;1.90;;
515;SDS011;244;48.508;9.052;2024-02-14T04:09:59;10.80;;;1.90;;
515;SDS011;244;48.508;9.052;2024-02-14T04:12:26;1.33;;;1.27;;
515;SDS011;244;48.508;9.052;2024-02-14T04:14:53;3.37;;;3.17;;
515;SDS011;244;48.508;9.052;2024-02-14T04:17:20;2.63;;;2.13;;
515;SDS011;244;48.508;9.052;2024-02-14T04:19:47;2.57;;;1.60;;
515;SDS011;244;48.508;9.052;2024-02-14T04:22:14;3.27;;;1.47;;
515;SDS011;244;48.508;9.052;2024-02-14T04:24:42;2.50;;;1.27;;
515;SDS011;244;48.508;9.052;2024-02-14T04:27:09;2.40;;;2.10;;
515;SDS011;244;48.508;9.052;2024-02-14T04:29:36;1.40;;;1.30;;
515;SDS011;244;48.508;9.052;2024-02-14T04:32:03;2.43;;;2.23;;
515;SDS011;244;48.508;9.052;2024-02-14T04:34:31;3.57;;;3.40;;
515;SDS011;244;48.508;9.052;2024-02-14T04:36:58;1.67;;;1.23;;
515;SDS011;244;48.508;9.052;2024-02-14T04:39:25;3.03;;;2.83;;
515;SDS011;244;48.508;9.052;2024-02-14T04:41:53;1.17;;;1.07;;
515;SDS011;244;48.508;9.052;2024-02-14T04:44:21;1.93;;;1.47;;
515;SDS011;244;48.508;9.052;2024-02-14T04:46:48;2.30;;;2.10;;
515;SDS011;244;48.508;9.052;2024-02-14T04:49:15;6.80;;;1.83;;
515;SDS011;244;48.508;9.052;2024-02-14T04:51:42;6.83;;;1.80;;
515;SDS011;244;48.508;9.052;2024-02-14T04:54:09;1.83;;;1.73;;
515;SDS011;244;48.508;9.052;2024-02-14T04:56:35;2.63;;;2.20;;
515;SDS011;244;48.508;9.052;2024-02-14T04:59:04;1.80;;;1.73;;
515;SDS011;244;48.508;9.052;2024-02-14T05:01:30;1.70;;;1.60;;
515;SDS011;244;48.508;9.052;2024-02-14T05:03:57;1.70;;;1.60;;
515;SDS011;244;48.508;9.052;2024-02-14T05:06:24;2.13;;;1.97;;
515;SDS011;244;48.508;9.052;2024-02-14T05:08:51;1.90;;;1.80;;
515;SDS011;244;48.508;9.052;2024-02-14T05:11:18;2.50;;;2.30;;
515;SDS011;244;48.508;9.052;2024-02-14T05:13:45;2.50;;;1.40;;
515;SDS011;244;48.508;9.052;2024-02-14T05:16:17;1.80;;;1.70;;
515;SDS011;244;48.508;9.052;2024-02-14T05:18:44;2.67;;;1.70;;
515;SDS011;244;48.508;9.052;2024-02-14T05:21:11;1.87;;;1.20;;
515;SDS011;244;48.508;9.052;2024-02-14T05:23:38;1.50;;;1.43;;
515;SDS011;244;48.508;9.052;2024-02-14T05:26:11;2.90;;;2.03;;
515;SDS011;244;48.508;9.052;2024-02-14T05:28:38;2.00;;;1.83;;
515;SDS011;244;48.508;9.052;2024-02-14T05:31:05;1.93;;;1.83;;
515;SDS011;244;48.508;9.052;2024-02-14T05:33:34;3.30;;;3.10;;
515;SDS011;244;48.508;9.052;2024-02-14T05:36:01;1.93;;;1.50;;
515;SDS011;244;48.508;9.052;2024-02-14T05:38:28;1.60;;;1.50;;
515;SDS011;244;48.508;9.052;2024-02-14T05:40:55;1.40;;;1.20;;
515;SDS011;244;48.508;9.052;2024-02-14T05:43:22;1.50;;;1.40;;
515;SDS011;244;48.508;9.052;2024-02-14T05:45:49;6.20;;;2.83;;
515;SDS011;244;48.508;9.052;2024-02-14T05:48:16;2.30;;;1.20;;
515;SDS011;244;48.508;9.052;2024-02-14T05:50:47;1.97;;;1.87;;
515;SDS011;244;48.508;9.052;2024-02-14T05:53:14;5.20;;;3.70;;
515;SDS011;244;48.508;9.052;2024-02-14T05:55:41;1.17;;;1.07;;
515;SDS011;244;48.508;9.052;2024-02-14T05:58:08;1.50;;;1.20;;
515;SDS011;244;48.508;9.052;2024-02-14T06:00:35;1.10;;;1.00;;
515;SDS011;244;48.508;9.052;2024-02-14T06:03:02;3.50;;;1.03;;
515;SDS011;244;48.508;9.052;2024-02-14T06:05:34;4.60;;;2.83;;
515;SDS011;244;48.508;9.052;2024-02-14T06:08:06;1.30;;;1.20;;
515;SDS011;244;48.508;9.052;2024-02-14T06:10:34;3.63;;;2.10;;
515;SDS011;244;48.508;9.052;2024-02-14T06:13:04;1.33;;;1.23;;
515;SDS011;244;48.508;9.052;2024-02-14T06:15:30;4.73;;;2.37;;
515;SDS011;244;48.508;9.052;2024-02-14T06:17:57;1.00;;;0.90;;
515;SDS011;244;48.508;9.052;2024-02-14T06:20:24;2.27;;;1.87;;
515;SDS011;244;48.508;9.052;2024-02-14T06:22:51;2.57;;;2.37;;
515;SDS011;244;48.508;9.052;2024-02-14T06:25:21;1.17;;;1.07;;
515;SDS011;244;48.508;9.052;2024-02-14T06:27:50;1.87;;;1.77;;
515;SDS011;244;48.508;9.052;2024-02-14T06:30:16;2.13;;;1.97;;
515;SDS011;244;48.508;9.052;2024-02-14T06:32:43;1.43;;;0.90;;
515;SDS011;244;48.508;9.052;2024-02-14T06:35:10;1.87;;;1.67;;
515;SDS011;244;48.508;9.052;2024-02-14T06:37:40;1.17;;;1.10;;
515;SDS011;244;48.508;9.052;2024-02-14T06:40:07;2.13;;;1.97;;
515;SDS011;244;48.508;9.052;2024-02-14T06:42:37;2.37;;;2.17;;
515;SDS011;244;48.508;9.052;2024-02-14T06:45:06;1.90;;;1.77;;
515;SDS011;244;48.508;9.052;2024-02-14T06:47:33;1.40;;;1.30;;
515;SDS011;244;48.508;9.052;2024-02-14T06:50:03;2.60;;;2.40;;
515;SDS011;244;48.508;9.052;2024-02-14T06:52:31;3.37;;;3.17;;
515;SDS011;244;48.508;9.052;2024-02-14T06:54:58;2.70;;;1.90;;
515;SDS011;244;48.508;9.052;2024-02-14T06:57:25;2.43;;;2.23;;
515;SDS011;244;48.508;9.052;2024-02-14T06:59:53;3.50;;;2.57;;
515;SDS011;244;48.508;9.052;2024-02-14T07:02:20;3.53;;;3.33;;
515;SDS011;244;48.508;9.052;2024-02-14T07:04:47;1.57;;;1.53;;
515;SDS011;244;48.508;9.052;2024-02-14T07:07:15;2.63;;;1.33;;
515;SDS011;244;48.508;9.052;2024-02-14T07:09:42;1.03;;;0.93;;
515;SDS011;244;48.508;9.052;2024-02-14T07:12:09;1.90;;;1.70;;
515;SDS011;244;48.508;9.052;2024-02-14T07:14:36;2.20;;;2.00;;
515;SDS011;244;48.508;9.052;2024-02-14T07:17:04;1.83;;;1.73;;
515;SDS011;244;48.508;9.052;2024-02-14T07:19:31;1.93;;;1.83;;
515;SDS011;244;48.508;9.052;2024-02-14T07:22:05;2.07;;;1.47;;
515;SDS011;244;48.508;9.052;2024-02-14T07:24:35;1.97;;;1.80;;
515;SDS011;244;48.508;9.052;2024-02-14T07:27:20;1.53;;;1.43;;
515;SDS011;244;48.508;9.052;2024-02-14T07:29:49;2.07;;;1.50;;
515;SDS011;244;48.508;9.052;2024-02-14T07:32:18;2.37;;;2.07;;
515;SDS011;244;48.508;9.052;2024-02-14T07:34:45;1.27;;;1.17;;
515;SDS011;244;48.508;9.052;2024-02-14T07:37:12;2.20;;;1.93;;
515;SDS011;244;48.508;9.052;2024-02-14T07:39:43;2.77;;;2.57;;
515;SDS011;244;48.508;9.052;2024-02-14T07:42:15;1.53;;;1.40;;
515;SDS011;244;48.508;9.052;2024-02-14T07:44:42;1.70;;;1.60;;
515;SDS011;244;48.508;9.052;2024-02-14T07:47:11;1.87;;;1.70;;
515;SDS011;244;48.508;9.052;2024-02-14T07:49:39;2.37;;;2.17;;
515;SDS011;244;48.508;9.052;2024-02-14T07:52:09;2.00;;;1.70;;
515;SDS011;244;48.508;9.052;2024-02-14T07:54:36;3.80;;;3.60;;
515;SDS011;244;48.508;9.052;2024-02-14T07:57:03;2.40;;;1.97;;
515;SDS011;244;48.508;9.052;2024-02-14T07:59:35;2.67;;;2.47;;
515;SDS011;244;48.508;9.052;2024-02-14T08:02:04;1.80;;;1.70;;
515;SDS011;244;48.508;9.052;2024-02-14T08:04:36;2.20;;;1.77;;
515;SDS011;244;48.508;9.052;2024-02-14T08:07:09;2.23;;;2.03;;
515;SDS011;244;48.508;9.052;2024-02-14T08:09:39;1.57;;;1.47;;
515;SDS011;244;48.508;9.052;2024-02-14T08:12:06;4.77;;;2.63;;
515;SDS011;244;48.508;9.052;2024-02-14T08:14:33;2.27;;;1.20;;
515;SDS011;244;48.508;9.052;2024-02-14T08:17:00;1.80;;;1.70;;
515;SDS011;244;48.508;9.052;2024-02-14T08:19:27;1.80;;;1.70;;
515;SDS011;244;48.508;9.052;2024-02-14T08:21:54;1.97;;;1.50;;
515;SDS011;244;48.508;9.052;2024-02-14T08:24:25;2.80;;;2.10;;
515;SDS011;244;48.508;9.052;2024-02-14T08:26:53;3.10;;;2.43;;
515;SDS011;244;48.508;9.052;2024-02-14T08:29:23;1.57;;;1.50;;
515;SDS011;244;48.508;9.052;2024-02-14T08:31:50;1.97;;;1.87;;
515;SDS011;244;48.508;9.052;2024-02-14T08:34:18;3.27;;;3.07;;
515;SDS011;244;48.508;9.052;2024-02-14T08:36:45;3.53;;;1.70;;
515;SDS011;244;48.508;9.052;2024-02-14T08:39:12;3.50;;;2.40;;
515;SDS011;244;48.508;9.052;2024-02-14T08:41:40;1.33;;;1.23;;
515;SDS011;244;48.508;9.052;2024-02-14T08:44:12;2.17;;;2.00;;
515;SDS011;244;48.508;9.052;2024-02-14T08:46:43;2.27;;;2.07;;
515;SDS011;244;48.508;9.052;2024-02-14T08:49:15;2.73;;;2.53;;
515;SDS011;244;48.508;9.052;2024-02-14T08:51:45;3.07;;;2.00;;
515;SDS011;244;48.508;9.052;2024-02-14T08:54:13;3.33;;;2.47;;
515;SDS011;244;48.508;9.052;2024-02-14T08:56:43;2.33;;;2.13;;
515;SDS011;244;48.508;9.052;2024-02-14T08:59:13;3.33;;;3.13;;
515;SDS011;244;48.508;9.052;2024-02-14T09:01:40;4.60;;;3.10;;
515;SDS011;244;48.508;9.052;2024-02-14T09:04:07;2.03;;;1.67;;
515;SDS011;244;48.508;9.052;2024-02-14T09:06:33;2.83;;;1.60;;
515;SDS011;244;48.508;9.052;2024-02-14T09:09:01;2.60;;;2.40;;
515;SDS011;244;48.508;9.052;2024-02-14T09:11:30;2.97;;;2.77;;
515;SDS011;244;48.508;9.052;2024-02-14T09:13:58;2.27;;;2.07;;
515;SDS011;244;48.508;9.052;2024-02-14T09:16:32;2.33;;;2.17;;
515;SDS011;244;48.508;9.052;2024-02-14T09:19:01;4.07;;;2.27;;
515;SDS011;244;48.508;9.052;2024-02-14T09:21:30;2.33;;;2.00;;
515;SDS011;244;48.508;9.052;2024-02-14T09:24:01;1.20;;;1.10;;
515;SDS011;244;48.508;9.052;2024-02-14T09:26:29;1.80;;;1.70;;
515;SDS011;244;48.508;9.052;2024-02-14T09:28:56;1.90;;;1.83;;
515;SDS011;244;48.508;9.052;2024-02-14T09:31:26;2.00;;;1.87;;
515;SDS011;244;48.508;9.052;2024-02-14T09:33:54;1.53;;;1.40;;
515;SDS011;244;48.508;9.052;2024-02-14T09:36:23;3.00;;;1.60;;
515;SDS011;244;48.508;9.052;2024-02-14T09:38:50;1.80;;;1.40;;
515;SDS011;244;48.508;9.052;2024-02-14T09:41:21;2.97;;;2.03;;
515;SDS011;244;48.508;9.052;2024-02-14T09:43:52;3.13;;;2.93;;
515;SDS011;244;48.508;9.052;2024-02-14T09:46:19;2.57;;;2.37;;
515;SDS011;244;48.508;9.052;2024-02-14T09:48:51;1.13;;;1.03;;
515;SDS011;244;48.508;9.052;2024-02-14T09:51:19;4.07;;;1.57;;
515;SDS011;244;48.508;9.052;2024-02-14T09:53:47;2.60;;;1.50;;
515;SDS011;244;48.508;9.052;2024-02-14T09:56:18;2.20;;;1.57;;
515;SDS011;244;48.508;9.052;2024-02-14T09:58:47;2.90;;;2.70;;
515;SDS011;244;48.508;9.052;2024-02-14T10:01:21;2.43;;;1.90;;
515;SDS011;244;48.508;9.052;2024-02-14T10:03:50;1.40;;;1.30;;
515;SDS011;244;48.508;9.052;2024-02-14T10:06:17;2.00;;;1.17;;
515;SDS011;244;48.508;9.052;2024-02-14T10:08:45;1.80;;;1.70;;
515;SDS011;244;48.508;9.052;2024-02-14T10:11:12;2.30;;;2.17;;
515;SDS011;244;48.508;9.052;2024-02-14T10:13:40;1.30;;;1.20;;
515;SDS011;244;48.508;9.052;2024-02-14T10:16:09;2.53;;;1.67;;
515;SDS011;244;48.508;9.052;2024-02-14T10:18:37;3.27;;;1.40;;
515;SDS011;244;48.508;9.052;2024-02-14T10:21:08;3.10;;;2.00;;
515;SDS011;244;48.508;9.052;2024-02-14T10:23:42;1.67;;;1.57;;
515;SDS011;244;48.508;9.052;2024-02-14T10:26:10;2.40;;;1.50;;
515;SDS011;244;48.508;9.052;2024-02-14T10:28:40;1.37;;;1.27;;
515;SDS011;244;48.508;9.052;2024-02-14T10:31:09;2.33;;;2.13;;
515;SDS011;244;48.508;9.052;2024-02-14T10:33:37;3.03;;;1.40;;
515;SDS011;244;48.508;9.052;2024-02-14T10:36:04;1.40;;;1.30;;
515;SDS011;244;48.508;9.052;2024-02-14T10:38:38;8.97;;;1.60;;
515;SDS011;244;48.508;9.052;2024-02-14T10:41:06;0.80;;;0.70;;
515;SDS011;244;48.508;9.052;2024-02-14T10:43:34;0.70;;;0.70;;
515;SDS011;244;48.508;9.052;2024-02-14T10:46:05;0.70;;;0.60;;
515;SDS011;244;48.508;9.052;2024-02-14T10:48:37;1.47;;;1.00;;
515;SDS011;244;48.508;9.052;2024-02-14T10:51:05;1.83;;;0.53;;
515;SDS011;244;48.508;9.052;2024-02-14T10:53:36;1.27;;;0.90;;
515;SDS011;244;48.508;9.052;2024-02-14T10:56:10;1.60;;;0.70;;
515;SDS011;244;48.508;9.052;2024-02-14T10:58:39;0.40;;;0.40;;
515;SDS011;244;48.508;9.052;2024-02-14T11:01:10;0.50;;;0.40;;
515;SDS011;244;48.508;9.052;2024-02-14T11:03:37;0.73;;;0.60;;
515;SDS011;244;48.508;9.052;2024-02-14T11:06:04;0.37;;;0.37;;
515;SDS011;244;48.508;9.052;2024-02-14T11:08:31;1.13;;;0.40;;
515;SDS011;244;48.508;9.052;2024-02-14T11:11:05;0.60;;;0.50;;
515;SDS011;244;48.508;9.052;2024-02-14T11:13:32;1.13;;;0.70;;
515;SDS011;244;48.508;9.052;2024-02-14T11:16:02;0.57;;;0.53;;
515;SDS011;244;48.508;9.052;2024-02-14T11:18:30;1.03;;;0.90;;
515;SDS011;244;48.508;9.052;2024-02-14T11:20:58;0.30;;;0.30;;
515;SDS011;244;48.508;9.052;2024-02-14T11:23:29;0.40;;;0.40;;
515;SDS011;244;48.508;9.052;2024-02-14T11:26:00;0.73;;;0.50;;
515;SDS011;244;48.508;9.052;2024-02-14T11:28:30;0.40;;;0.40;;
515;SDS011;244;48.508;9.052;2024-02-14T11:30:58;0.50;;;0.37;;
515;SDS011;244;48.508;9.052;2024-02-14T11:33:28;0.77;;;0.77;;
515;SDS011;244;48.508;9.052;2024-02-14T11:35:56;0.73;;;0.57;;
515;SDS011;244;48.508;9.052;2024-02-14T11:38:24;0.60;;;0.50;;
515;SDS011;244;48.508;9.052;2024-02-14T11:40:53;0.40;;;0.37;;
515;SDS011;244;48.508;9.052;2024-02-14T11:43:22;1.03;;;0.60;;
515;SDS011;244;48.508;9.052;2024-02-14T11:45:53;0.60;;;0.50;;
515;SDS011;244;48.508;9.052;2024-02-14T11:48:20;0.87;;;0.83;;
515;SDS011;244;48.508;9.052;2024-02-14T11:50:49;0.70;;;0.60;;
515;SDS011;244;48.508;9.052;2024-02-14T11:53:18;0.90;;;0.33;;
515;SDS011;244;48.508;9.052;2024-02-14T11:55:45;1.03;;;0.60;;
515;SDS011;244;48.508;9.052;2024-02-14T11:58:13;0.83;;;0.77;;
515;SDS011;244;48.508;9.052;2024-02-14T12:00:41;0.40;;;0.40;;
515;SDS011;244;48.508;9.052;2024-02-14T12:03:11;0.40;;;0.40;;
515;SDS011;244;48.508;9.052;2024-02-14T12:05:39;0.63;;;0.57;;
515;SDS011;244;48.508;9.052;2024-02-14T12:08:08;0.57;;;0.53;;
515;SDS011;244;48.508;9.052;2024-02-14T12:10:36;0.40;;;0.30;;
515;SDS011;244;48.508;9.052;2024-02-14T12:13:06;0.40;;;0.30;;
515;SDS011;244;48.508;9.052;2024-02-14T12:15:44;0.50;;;0.40;;
515;SDS011;244;48.508;9.052;2024-02-14T12:18:13;0.30;;;0.30;;
515;SDS011;244;48.508;9.052;2024-02-14T12:20:40;0.90;;;0.53;;
515;SDS011;244;48.508;9.052;2024-02-14T12:23:07;1.17;;;0.80;;
515;SDS011;244;48.508;9.052;2024-02-14T12:25:40;0.47;;;0.40;;
515;SDS011;244;48.508;9.052;2024-02-14T12:28:07;0.40;;;0.30;;
515;SDS011;244;48.508;9.052;2024-02-14T12:30:43;0.30;;;0.20;;
515;SDS011;244;48.508;9.052;2024-02-14T12:33:13;1.03;;;0.40;;
515;SDS011;244;48.508;9.052;2024-02-14T12:35:41;0.30;;;0.30;;
515;SDS011;244;48.508;9.052;2024-02-14T12:38:09;0.60;;;0.40;;
515;SDS011;244;48.508;9.052;2024-02-14T12:40:37;0.30;;;0.30;;
515;SDS011;244;48.508;9.052;2024-02-14T12:43:06;0.30;;;0.20;;
515;SDS011;244;48.508;9.052;2024-02-14T12:45:34;0.37;;;0.33;;
515;SDS011;244;48.508;9.052;2024-02-14T12:48:00;2.60;;;0.70;;
515;SDS011;244;48.508;9.052;2024-02-14T12:50:30;0.70;;;0.40;;
515;SDS011;244;48.508;9.052;2024-02-14T12:52:57;0.30;;;0.30;;
515;SDS011;244;48.508;9.052;2024-02-14T12:55:24;0.60;;;0.40;;
515;SDS011;244;48.508;9.052;2024-02-14T12:57:53;0.40;;;0.40;;
515;SDS011;244;48.508;9.052;2024-02-14T13:00:20;0.50;;;0.33;;
515;SDS011;244;48.508;9.052;2024-02-14T13:02:47;0.40;;;0.30;;
515;SDS011;244;48.508;9.052;2024-02-14T13:05:15;0.67;;;0.60;;
515;SDS011;244;48.508;9.052;2024-02-14T13:07:43;0.30;;;0.27;;
515;SDS011;244;48.508;9.052;2024-02-14T13:10:11;0.47;;;0.33;;
515;SDS011;244;48.508;9.052;2024-02-14T13:12:42;0.30;;;0.30;;
515;SDS011;244;48.508;9.052;2024-02-14T13:15:10;0.63;;;0.40;;
515;SDS011;244;48.508;9.052;2024-02-14T13:17:37;0.30;;;0.30;;
515;SDS011;244;48.508;9.052;2024-02-14T13:20:04;0.30;;;0.30;;
515;SDS011;244;48.508;9.052;2024-02-14T13:22:33;0.40;;;0.30;;
515;SDS011;244;48.508;9.052;2024-02-14T13:25:01;0.47;;;0.33;;
515;SDS011;244;48.508;9.052;2024-02-14T13:27:32;0.40;;;0.40;;
515;SDS011;244;48.508;9.052;2024-02-14T13:29:59;0.30;;;0.30;;
515;SDS011;244;48.508;9.052;2024-02-14T13:32:26;0.30;;;0.30;;
515;SDS011;244;48.508;9.052;2024-02-14T13:34:53;0.40;;;0.30;;
515;SDS011;244;48.508;9.052;2024-02-14T13:37:21;0.30;;;0.20;;
515;SDS011;244;48.508;9.052;2024-02-14T13:39:48;0.63;;;0.30;;
515;SDS011;244;48.508;9.052;2024-02-14T13:42:16;0.40;;;0.40;;
515;SDS011;244;48.508;9.052;2024-02-14T13:44:46;0.30;;;0.30;;
515;SDS011;244;48.508;9.052;2024-02-14T13:47:13;0.30;;;0.30;;
515;SDS011;244;48.508;9.052;2024-02-14T13:49:40;0.40;;;0.40;;
515;SDS011;244;48.508;9.052;2024-02-14T13:52:08;0.50;;;0.40;;
515;SDS011;244;48.508;9.052;2024-02-14T13:54:34;0.30;;;0.27;;
515;SDS011;244;48.508;9.052;2024-02-14T13:57:01;0.30;;;0.30;;
515;SDS011;244;48.508;9.052;2024-02-14T13:59:30;0.40;;;0.30;;
515;SDS011;244;48.508;9.052;2024-02-14T14:01:57;0.40;;;0.40;;
515;SDS011;244;48.508;9.052;2024-02-14T14:04:26;0.40;;;0.30;;
515;SDS011;244;48.508;9.052;2024-02-14T14:06:53;0.37;;;0.30;;
515;SDS011;244;48.508;9.052;2024-02-14T14:09:20;0.60;;;0.40;;
515;SDS011;244;48.508;9.052;2024-02-14T14:11:47;0.40;;;0.40;;
515;SDS011;244;48.508;9.052;2024-02-14T14:14:16;0.40;;;0.30;;
515;SDS011;244;48.508;9.052;2024-02-14T14:16:45;0.40;;;0.30;;
515;SDS011;244;48.508;9.052;2024-02-14T14:19:12;0.30;;;0.30;;
515;SDS011;244;48.508;9.052;2024-02-14T14:21:39;0.40;;;0.30;;
515;SDS011;244;48.508;9.052;2024-02-14T14:24:06;0.30;;;0.30;;
515;SDS011;244;48.508;9.052;2024-02-14T14:26:33;1.30;;;1.03;;
515;SDS011;244;48.508;9.052;2024-02-14T14:29:00;2.73;;;0.43;;
515;SDS011;244;48.508;9.052;2024-02-14T14:31:33;0.70;;;0.63;;
515;SDS011;244;48.508;9.052;2024-02-14T14:34:02;0.37;;;0.30;;
515;SDS011;244;48.508;9.052;2024-02-14T14:36:29;0.63;;;0.30;;
515;SDS011;244;48.508;9.052;2024-02-14T14:38:55;0.40;;;0.30;;
515;SDS011;244;48.508;9.052;2024-02-14T14:41:23;0.70;;;0.50;;
515;SDS011;244;48.508;9.052;2024-02-14T14:43:50;0.50;;;0.30;;
515;SDS011;244;48.508;9.052;2024-02-14T14:46:16;0.37;;;0.30;;
515;SDS011;244;48.508;9.052;2024-02-14T14:48:43;0.30;;;0.30;;
515;SDS011;244;48.508;9.052;2024-02-14T14:51:14;0.47;;;0.40;;
515;SDS011;244;48.508;9.052;2024-02-14T14:53:41;4.97;;;0.50;;
515;SDS011;244;48.508;9.052;2024-02-14T14:56:08;0.40;;;0.40;;
515;SDS011;244;48.508;9.052;2024-02-14T14:58:35;0.50;;;0.30;;
515;SDS011;244;48.508;9.052;2024-02-14T15:01:02;0.30;;;0.30;;
515;SDS011;244;48.508;9.052;2024-02-14T15:03:30;0.40;;;0.30;;
515;SDS011;244;48.508;9.052;2024-02-14T15:05:57;0.30;;;0.30;;
515;SDS011;244;48.508;9.052;2024-02-14T15:08:29;0.50;;;0.33;;
515;SDS011;244;48.508;9.052;2024-02-14T15:10:57;0.40;;;0.30;;
515;SDS011;244;48.508;9.052;2024-02-14T15:13:25;0.30;;;0.30;;
515;SDS011;244;48.508;9.052;2024-02-14T15:15:52;0.40;;;0.40;;
515;SDS011;244;48.508;9.052;2024-02-14T15:18:19;0.30;;;0.30;;
515;SDS011;244;48.508;9.052;2024-02-14T15:20:46;1.80;;;0.30;;
515;SDS011;244;48.508;9.052;2024-02-14T15:23:13;0.40;;;0.30;;
515;SDS011;244;48.508;9.052;2024-02-14T15:25:41;0.40;;;0.30;;
515;SDS011;244;48.508;9.052;2024-02-14T15:28:09;0.30;;;0.23;;
515;SDS011;244;48.508;9.052;2024-02-14T15:30:38;0.50;;;0.40;;
515;SDS011;244;48.508;9.052;2024-02-14T15:33:23;0.40;;;0.40;;
515;SDS011;244;48.508;9.052;2024-02-14T15:35:51;0.50;;;0.40;;
515;SDS011;244;48.508;9.052;2024-02-14T15:38:18;0.40;;;0.30;;
515;SDS011;244;48.508;9.052;2024-02-14T15:40:47;0.30;;;0.30;;
515;SDS011;244;48.508;9.052;2024-02-14T15:43:17;0.40;;;0.30;;
515;SDS011;244;48.508;9.052;2024-02-14T15:45:44;0.40;;;0.40;;
515;SDS011;244;48.508;9.052;2024-02-14T15:48:11;0.63;;;0.40;;
515;SDS011;244;48.508;9.052;2024-02-14T15:50:40;0.30;;;0.20;;